sensor_id;sensor_type;location;lat;lon;timestamp;temperature;humidity
25963;DHT22;13760;52.588;13.406;2023-12-20T00:01:48;6.70;99.90
25963;DHT22;13760;52.588;13.406;2023-12-20T00:04:14;6.70;99.90
25963;DHT22;13760;52.588;13.406;2023-12-20T00:06:40;6.70;99.90
25963;DHT22;13760;52.588;13.406;2023-12-20T00:09:05;6.70;99.90
25963;DHT22;13760;52.588;13.406;2023-12-20T00:11:31;6.70;99.90
25963;DHT22;13760;52.588;13.406;2023-12-20T00:13:56;6.70;99.90
25963;DHT22;13760;52.588;13.406;2023-12-20T00:16:22;6.70;99.90
25963;DHT22;13760;52.588;13.406;2023-12-20T00:18:47;6.70;99.90
25963;DHT22;13760;52.588;13.406;2023-12-20T00:21:13;6.70;99.90
25963;DHT22;13760;52.588;13.406;2023-12-20T00:23:39;6.70;99.90
25963;DHT22;13760;52.588;13.406;2023-12-20T00:26:04;6.70;99.90
25963;DHT22;13760;52.588;13.406;2023-12-20T00:28:30;6.70;99.90
25963;DHT22;13760;52.588;13.406;2023-12-20T00:30:55;6.70;99.90
25963;DHT22;13760;52.588;13.406;2023-12-20T00:33:21;6.70;99.90
25963;DHT22;13760;52.588;13.406;2023-12-20T00:35:46;6.70;99.90
25963;DHT22;13760;52.588;13.406;2023-12-20T00:38:12;6.70;99.90
25963;DHT22;13760;52.588;13.406;2023-12-20T00:40:38;6.70;99.90
25963;DHT22;13760;52.588;13.406;2023-12-20T00:43:03;6.70;99.90
25963;DHT22;13760;52.588;13.406;2023-12-20T00:45:29;6.70;99.90
25963;DHT22;13760;52.588;13.406;2023-12-20T00:47:54;6.70;99.90
25963;DHT22;13760;52.588;13.406;2023-12-20T00:50:20;6.70;99.90
25963;DHT22;13760;52.588;13.406;2023-12-20T00:52:47;6.70;99.90
25963;DHT22;13760;52.588;13.406;2023-12-20T00:55:13;6.70;99.90
25963;DHT22;13760;52.588;13.406;2023-12-20T00:57:38;6.60;99.90
25963;DHT22;13760;52.588;13.406;2023-12-20T01:00:04;6.60;99.90
25963;DHT22;13760;52.588;13.406;2023-12-20T01:02:30;6.70;99.90
25963;DHT22;13760;52.588;13.406;2023-12-20T01:04:55;6.70;99.90
25963;DHT22;13760;52.588;13.406;2023-12-20T01:07:21;6.70;99.90
25963;DHT22;13760;52.588;13.406;2023-12-20T01:09:46;6.70;99.90
25963;DHT22;13760;52.588;13.406;2023-12-20T01:12:12;6.70;99.90
25963;DHT22;13760;52.588;13.406;2023-12-20T01:14:37;6.70;99.90
25963;DHT22;13760;52.588;13.406;2023-12-20T01:17:04;6.70;99.90
25963;DHT22;13760;52.588;13.406;2023-12-20T01:19:30;6.70;99.90
25963;DHT22;13760;52.588;13.406;2023-12-20T01:21:55;6.70;99.90
25963;DHT22;13760;52.588;13.406;2023-12-20T01:24:21;6.70;99.90
25963;DHT22;13760;52.588;13.406;2023-12-20T01:26:46;6.70;99.90
25963;DHT22;13760;52.588;13.406;2023-12-20T01:29:12;6.70;99.90
25963;DHT22;13760;52.588;13.406;2023-12-20T01:31:39;6.70;99.90
25963;DHT22;13760;52.588;13.406;2023-12-20T01:34:06;6.70;99.90
25963;DHT22;13760;52.588;13.406;2023-12-20T01:36:31;6.70;99.90
25963;DHT22;13760;52.588;13.406;2023-12-20T01:38:56;6.70;99.90
25963;DHT22;13760;52.588;13.406;2023-12-20T01:41:22;6.70;99.90
25963;DHT22;13760;52.588;13.406;2023-12-20T01:43:48;6.70;99.90
25963;DHT22;13760;52.588;13.406;2023-12-20T01:46:14;6.70;99.90
25963;DHT22;13760;52.588;13.406;2023-12-20T01:48:41;6.70;99.90
25963;DHT22;13760;52.588;13.406;2023-12-20T01:51:06;6.70;99.90
25963;DHT22;13760;52.588;13.406;2023-12-20T01:53:32;6.70;99.90
25963;DHT22;13760;52.588;13.406;2023-12-20T01:55:58;6.70;99.90
25963;DHT22;13760;52.588;13.406;2023-12-20T01:58:24;6.70;99.90
25963;DHT22;13760;52.588;13.406;2023-12-20T02:00:50;6.70;99.90
25963;DHT22;13760;52.588;13.406;2023-12-20T02:03:16;6.70;99.90
25963;DHT22;13760;52.588;13.406;2023-12-20T02:05:44;6.60;99.90
25963;DHT22;13760;52.588;13.406;2023-12-20T02:08:11;6.60;99.90
25963;DHT22;13760;52.588;13.406;2023-12-20T02:10:36;6.60;99.90
25963;DHT22;13760;52.588;13.406;2023-12-20T02:13:02;6.60;99.90
25963;DHT22;13760;52.588;13.406;2023-12-20T02:15:31;6.60;99.90
25963;DHT22;13760;52.588;13.406;2023-12-20T02:17:57;6.60;99.90
25963;DHT22;13760;52.588;13.406;2023-12-20T02:20:22;6.60;99.90
25963;DHT22;13760;52.588;13.406;2023-12-20T02:22:48;6.50;99.90
25963;DHT22;13760;52.588;13.406;2023-12-20T02:25:13;6.60;99.90
25963;DHT22;13760;52.588;13.406;2023-12-20T02:27:39;6.50;99.90
25963;DHT22;13760;52.588;13.406;2023-12-20T02:30:06;6.50;99.90
25963;DHT22;13760;52.588;13.406;2023-12-20T02:32:31;6.50;99.90
25963;DHT22;13760;52.588;13.406;2023-12-20T02:34:58;6.50;99.90
25963;DHT22;13760;52.588;13.406;2023-12-20T02:37:23;6.50;99.90
25963;DHT22;13760;52.588;13.406;2023-12-20T02:39:49;6.50;99.90
25963;DHT22;13760;52.588;13.406;2023-12-20T02:42:14;6.40;99.90
25963;DHT22;13760;52.588;13.406;2023-12-20T02:44:40;6.40;99.90
25963;DHT22;13760;52.588;13.406;2023-12-20T02:47:05;6.40;99.90
25963;DHT22;13760;52.588;13.406;2023-12-20T02:49:31;6.30;99.90
25963;DHT22;13760;52.588;13.406;2023-12-20T02:51:57;6.30;99.90
25963;DHT22;13760;52.588;13.406;2023-12-20T02:54:22;6.30;99.90
25963;DHT22;13760;52.588;13.406;2023-12-20T02:56:48;6.30;99.90
25963;DHT22;13760;52.588;13.406;2023-12-20T02:59:13;6.30;99.90
25963;DHT22;13760;52.588;13.406;2023-12-20T03:01:43;6.30;99.90
25963;DHT22;13760;52.588;13.406;2023-12-20T03:04:08;6.40;99.90
25963;DHT22;13760;52.588;13.406;2023-12-20T03:06:34;6.30;99.90
25963;DHT22;13760;52.588;13.406;2023-12-20T03:08:59;6.30;99.90
25963;DHT22;13760;52.588;13.406;2023-12-20T03:11:28;6.40;99.90
25963;DHT22;13760;52.588;13.406;2023-12-20T03:13:54;6.30;99.90
25963;DHT22;13760;52.588;13.406;2023-12-20T03:16:20;6.30;99.90
25963;DHT22;13760;52.588;13.406;2023-12-20T03:18:45;6.30;99.90
25963;DHT22;13760;52.588;13.406;2023-12-20T03:21:11;6.30;99.90
25963;DHT22;13760;52.588;13.406;2023-12-20T03:23:36;6.20;99.90
25963;DHT22;13760;52.588;13.406;2023-12-20T03:26:02;6.20;99.90
25963;DHT22;13760;52.588;13.406;2023-12-20T03:28:31;6.20;99.90
25963;DHT22;13760;52.588;13.406;2023-12-20T03:30:56;6.20;99.90
25963;DHT22;13760;52.588;13.406;2023-12-20T03:33:22;6.10;99.90
25963;DHT22;13760;52.588;13.406;2023-12-20T03:35:47;6.20;99.90
25963;DHT22;13760;52.588;13.406;2023-12-20T03:38:13;6.10;99.90
25963;DHT22;13760;52.588;13.406;2023-12-20T03:40:38;6.10;99.90
25963;DHT22;13760;52.588;13.406;2023-12-20T03:43:04;6.10;99.90
25963;DHT22;13760;52.588;13.406;2023-12-20T03:45:30;6.00;99.90
25963;DHT22;13760;52.588;13.406;2023-12-20T03:47:55;6.00;99.90
25963;DHT22;13760;52.588;13.406;2023-12-20T03:50:25;6.00;99.90
25963;DHT22;13760;52.588;13.406;2023-12-20T03:52:51;6.00;99.90
25963;DHT22;13760;52.588;13.406;2023-12-20T03:55:16;6.00;99.90
25963;DHT22;13760;52.588;13.406;2023-12-20T03:57:42;6.00;99.90
25963;DHT22;13760;52.588;13.406;2023-12-20T04:00:08;6.00;99.90
25963;DHT22;13760;52.588;13.406;2023-12-20T04:02:36;6.00;99.90
25963;DHT22;13760;52.588;13.406;2023-12-20T04:05:02;6.00;99.90
25963;DHT22;13760;52.588;13.406;2023-12-20T04:07:27;6.00;99.90
25963;DHT22;13760;52.588;13.406;2023-12-20T04:09:53;6.00;99.90
25963;DHT22;13760;52.588;13.406;2023-12-20T04:12:18;6.00;99.90
25963;DHT22;13760;52.588;13.406;2023-12-20T04:14:44;6.00;99.90
25963;DHT22;13760;52.588;13.406;2023-12-20T04:17:09;6.00;99.90
25963;DHT22;13760;52.588;13.406;2023-12-20T04:19:35;6.00;99.90
25963;DHT22;13760;52.588;13.406;2023-12-20T04:22:00;6.00;99.90
25963;DHT22;13760;52.588;13.406;2023-12-20T04:24:26;6.00;99.90
25963;DHT22;13760;52.588;13.406;2023-12-20T04:26:51;6.00;99.90
25963;DHT22;13760;52.588;13.406;2023-12-20T04:29:17;6.00;99.90
25963;DHT22;13760;52.588;13.406;2023-12-20T04:31:42;6.00;99.90
25963;DHT22;13760;52.588;13.406;2023-12-20T04:34:08;5.90;99.90
25963;DHT22;13760;52.588;13.406;2023-12-20T04:36:33;5.90;99.90
25963;DHT22;13760;52.588;13.406;2023-12-20T04:38:59;5.90;99.90
25963;DHT22;13760;52.588;13.406;2023-12-20T04:41:25;5.80;99.90
25963;DHT22;13760;52.588;13.406;2023-12-20T04:43:50;5.80;99.90
25963;DHT22;13760;52.588;13.406;2023-12-20T04:46:16;5.80;99.90
25963;DHT22;13760;52.588;13.406;2023-12-20T04:48:42;5.70;99.90
25963;DHT22;13760;52.588;13.406;2023-12-20T04:51:07;5.70;99.90
25963;DHT22;13760;52.588;13.406;2023-12-20T04:53:33;5.70;99.90
25963;DHT22;13760;52.588;13.406;2023-12-20T04:55:58;5.60;99.90
25963;DHT22;13760;52.588;13.406;2023-12-20T04:58:24;5.60;99.90
25963;DHT22;13760;52.588;13.406;2023-12-20T05:00:49;5.50;99.90
25963;DHT22;13760;52.588;13.406;2023-12-20T05:03:15;5.50;99.90
25963;DHT22;13760;52.588;13.406;2023-12-20T05:05:40;5.50;99.90
25963;DHT22;13760;52.588;13.406;2023-12-20T05:08:06;5.50;99.90
25963;DHT22;13760;52.588;13.406;2023-12-20T05:10:31;5.60;99.90
25963;DHT22;13760;52.588;13.406;2023-12-20T05:12:57;5.50;99.90
25963;DHT22;13760;52.588;13.406;2023-12-20T05:15:22;5.50;99.90
25963;DHT22;13760;52.588;13.406;2023-12-20T05:17:48;5.50;99.90
25963;DHT22;13760;52.588;13.406;2023-12-20T05:20:13;5.50;99.90
25963;DHT22;13760;52.588;13.406;2023-12-20T05:22:42;5.50;99.90
25963;DHT22;13760;52.588;13.406;2023-12-20T05:25:10;5.50;99.90
25963;DHT22;13760;52.588;13.406;2023-12-20T05:27:36;5.50;99.90
25963;DHT22;13760;52.588;13.406;2023-12-20T05:30:02;5.40;99.90
25963;DHT22;13760;52.588;13.406;2023-12-20T05:32:28;5.40;99.90
25963;DHT22;13760;52.588;13.406;2023-12-20T05:34:54;5.40;99.90
25963;DHT22;13760;52.588;13.406;2023-12-20T05:37:19;5.30;99.90
25963;DHT22;13760;52.588;13.406;2023-12-20T05:39:45;5.30;99.90
25963;DHT22;13760;52.588;13.406;2023-12-20T05:42:10;5.30;99.90
25963;DHT22;13760;52.588;13.406;2023-12-20T05:44:36;5.20;99.90
25963;DHT22;13760;52.588;13.406;2023-12-20T05:47:01;5.20;99.90
25963;DHT22;13760;52.588;13.406;2023-12-20T05:49:27;5.10;99.90
25963;DHT22;13760;52.588;13.406;2023-12-20T05:51:53;5.10;99.90
25963;DHT22;13760;52.588;13.406;2023-12-20T05:54:19;5.10;99.90
25963;DHT22;13760;52.588;13.406;2023-12-20T05:56:44;5.00;99.90
25963;DHT22;13760;52.588;13.406;2023-12-20T05:59:10;5.00;99.90
25963;DHT22;13760;52.588;13.406;2023-12-20T06:01:35;5.00;99.90
25963;DHT22;13760;52.588;13.406;2023-12-20T06:04:01;5.00;99.90
25963;DHT22;13760;52.588;13.406;2023-12-20T06:06:28;5.00;99.90
25963;DHT22;13760;52.588;13.406;2023-12-20T06:08:54;5.00;99.90
25963;DHT22;13760;52.588;13.406;2023-12-20T06:11:19;5.00;99.90
25963;DHT22;13760;52.588;13.406;2023-12-20T06:13:45;5.00;99.90
25963;DHT22;13760;52.588;13.406;2023-12-20T06:16:11;5.00;99.90
25963;DHT22;13760;52.588;13.406;2023-12-20T06:18:37;5.00;99.90
25963;DHT22;13760;52.588;13.406;2023-12-20T06:21:03;5.00;99.90
25963;DHT22;13760;52.588;13.406;2023-12-20T06:23:28;5.00;99.90
25963;DHT22;13760;52.588;13.406;2023-12-20T06:25:54;5.00;99.90
25963;DHT22;13760;52.588;13.406;2023-12-20T06:28:19;4.90;99.90
25963;DHT22;13760;52.588;13.406;2023-12-20T06:30:45;4.90;99.90
25963;DHT22;13760;52.588;13.406;2023-12-20T06:33:12;5.00;99.90
25963;DHT22;13760;52.588;13.406;2023-12-20T06:35:38;4.90;99.90
25963;DHT22;13760;52.588;13.406;2023-12-20T06:38:04;4.90;99.90
25963;DHT22;13760;52.588;13.406;2023-12-20T06:40:30;5.00;99.90
25963;DHT22;13760;52.588;13.406;2023-12-20T06:42:55;5.00;99.90
25963;DHT22;13760;52.588;13.406;2023-12-20T06:45:21;5.00;99.90
25963;DHT22;13760;52.588;13.406;2023-12-20T06:47:46;5.00;99.90
25963;DHT22;13760;52.588;13.406;2023-12-20T06:50:12;5.00;99.90
25963;DHT22;13760;52.588;13.406;2023-12-20T06:52:37;5.00;99.90
25963;DHT22;13760;52.588;13.406;2023-12-20T06:55:03;5.00;99.90
25963;DHT22;13760;52.588;13.406;2023-12-20T06:57:29;5.00;99.90
25963;DHT22;13760;52.588;13.406;2023-12-20T06:59:55;4.90;99.90
25963;DHT22;13760;52.588;13.406;2023-12-20T07:02:20;5.00;99.90
25963;DHT22;13760;52.588;13.406;2023-12-20T07:04:47;5.00;99.90
25963;DHT22;13760;52.588;13.406;2023-12-20T07:07:16;5.00;99.90
25963;DHT22;13760;52.588;13.406;2023-12-20T07:09:41;5.00;99.90
25963;DHT22;13760;52.588;13.406;2023-12-20T07:12:08;5.00;99.90
25963;DHT22;13760;52.588;13.406;2023-12-20T07:14:34;5.00;99.90
25963;DHT22;13760;52.588;13.406;2023-12-20T07:17:00;5.00;99.90
25963;DHT22;13760;52.588;13.406;2023-12-20T07:19:25;5.10;99.90
25963;DHT22;13760;52.588;13.406;2023-12-20T07:21:51;5.10;99.90
25963;DHT22;13760;52.588;13.406;2023-12-20T07:24:16;5.10;99.90
25963;DHT22;13760;52.588;13.406;2023-12-20T07:26:42;5.10;99.90
25963;DHT22;13760;52.588;13.406;2023-12-20T07:29:08;5.10;99.90
25963;DHT22;13760;52.588;13.406;2023-12-20T07:31:34;5.20;99.90
25963;DHT22;13760;52.588;13.406;2023-12-20T07:34:00;5.20;99.90
25963;DHT22;13760;52.588;13.406;2023-12-20T07:36:25;5.20;99.90
25963;DHT22;13760;52.588;13.406;2023-12-20T07:38:51;5.20;99.90
25963;DHT22;13760;52.588;13.406;2023-12-20T07:41:16;5.20;99.90
25963;DHT22;13760;52.588;13.406;2023-12-20T07:43:42;5.20;99.90
25963;DHT22;13760;52.588;13.406;2023-12-20T07:46:16;5.20;99.90
25963;DHT22;13760;52.588;13.406;2023-12-20T07:48:43;5.20;99.90
25963;DHT22;13760;52.588;13.406;2023-12-20T07:51:09;5.20;99.90
25963;DHT22;13760;52.588;13.406;2023-12-20T07:53:35;5.20;99.90
25963;DHT22;13760;52.588;13.406;2023-12-20T07:56:01;5.20;99.90
25963;DHT22;13760;52.588;13.406;2023-12-20T07:58:26;5.30;99.90
25963;DHT22;13760;52.588;13.406;2023-12-20T08:00:52;5.30;99.90
25963;DHT22;13760;52.588;13.406;2023-12-20T08:03:17;5.30;99.90
25963;DHT22;13760;52.588;13.406;2023-12-20T08:05:43;5.30;99.90
25963;DHT22;13760;52.588;13.406;2023-12-20T08:08:08;5.30;99.90
25963;DHT22;13760;52.588;13.406;2023-12-20T08:10:34;5.30;99.90
25963;DHT22;13760;52.588;13.406;2023-12-20T08:13:13;5.30;99.90
25963;DHT22;13760;52.588;13.406;2023-12-20T08:15:39;5.30;99.90
25963;DHT22;13760;52.588;13.406;2023-12-20T08:18:05;5.30;99.90
25963;DHT22;13760;52.588;13.406;2023-12-20T08:20:30;5.30;99.90
25963;DHT22;13760;52.588;13.406;2023-12-20T08:22:56;5.40;99.90
25963;DHT22;13760;52.588;13.406;2023-12-20T08:25:21;5.40;99.90
25963;DHT22;13760;52.588;13.406;2023-12-20T08:27:49;5.40;99.90
25963;DHT22;13760;52.588;13.406;2023-12-20T08:30:15;5.40;99.90
25963;DHT22;13760;52.588;13.406;2023-12-20T08:32:45;5.40;99.90
25963;DHT22;13760;52.588;13.406;2023-12-20T08:35:11;5.40;99.90
25963;DHT22;13760;52.588;13.406;2023-12-20T08:37:36;5.40;99.90
25963;DHT22;13760;52.588;13.406;2023-12-20T08:40:03;5.40;99.90
25963;DHT22;13760;52.588;13.406;2023-12-20T08:42:28;5.40;99.90
25963;DHT22;13760;52.588;13.406;2023-12-20T08:44:57;5.40;99.90
25963;DHT22;13760;52.588;13.406;2023-12-20T08:47:23;5.50;99.90
25963;DHT22;13760;52.588;13.406;2023-12-20T08:49:49;5.50;99.90
25963;DHT22;13760;52.588;13.406;2023-12-20T08:52:14;5.60;99.90
25963;DHT22;13760;52.588;13.406;2023-12-20T08:54:40;5.60;99.90
25963;DHT22;13760;52.588;13.406;2023-12-20T08:57:06;5.60;99.90
25963;DHT22;13760;52.588;13.406;2023-12-20T08:59:32;5.70;99.90
25963;DHT22;13760;52.588;13.406;2023-12-20T09:01:58;5.70;99.90
25963;DHT22;13760;52.588;13.406;2023-12-20T09:04:23;5.70;99.90
25963;DHT22;13760;52.588;13.406;2023-12-20T09:06:49;5.70;99.90
25963;DHT22;13760;52.588;13.406;2023-12-20T09:09:15;5.70;99.90
25963;DHT22;13760;52.588;13.406;2023-12-20T09:11:41;5.70;99.90
25963;DHT22;13760;52.588;13.406;2023-12-20T09:14:07;5.80;99.90
25963;DHT22;13760;52.588;13.406;2023-12-20T09:16:35;5.90;99.90
25963;DHT22;13760;52.588;13.406;2023-12-20T09:19:01;6.00;99.90
25963;DHT22;13760;52.588;13.406;2023-12-20T09:21:27;6.00;99.90
25963;DHT22;13760;52.588;13.406;2023-12-20T09:23:52;6.00;99.90
25963;DHT22;13760;52.588;13.406;2023-12-20T09:26:18;5.90;99.90
25963;DHT22;13760;52.588;13.406;2023-12-20T09:28:44;6.00;99.90
25963;DHT22;13760;52.588;13.406;2023-12-20T09:31:10;6.00;99.90
25963;DHT22;13760;52.588;13.406;2023-12-20T09:33:35;6.00;99.90
25963;DHT22;13760;52.588;13.406;2023-12-20T09:36:01;6.00;99.90
25963;DHT22;13760;52.588;13.406;2023-12-20T09:38:26;6.00;99.90
25963;DHT22;13760;52.588;13.406;2023-12-20T09:40:52;6.00;99.90
25963;DHT22;13760;52.588;13.406;2023-12-20T09:43:20;6.00;99.90
25963;DHT22;13760;52.588;13.406;2023-12-20T09:45:47;6.00;99.90
25963;DHT22;13760;52.588;13.406;2023-12-20T09:48:14;6.10;99.90
25963;DHT22;13760;52.588;13.406;2023-12-20T09:50:42;6.10;99.90
25963;DHT22;13760;52.588;13.406;2023-12-20T09:53:14;6.10;99.90
25963;DHT22;13760;52.588;13.406;2023-12-20T09:55:41;6.00;99.90
25963;DHT22;13760;52.588;13.406;2023-12-20T09:58:07;6.10;99.90
25963;DHT22;13760;52.588;13.406;2023-12-20T10:00:34;6.10;99.90
25963;DHT22;13760;52.588;13.406;2023-12-20T10:03:00;6.10;99.90
25963;DHT22;13760;52.588;13.406;2023-12-20T10:05:31;6.10;99.90
25963;DHT22;13760;52.588;13.406;2023-12-20T10:07:58;6.10;99.90
25963;DHT22;13760;52.588;13.406;2023-12-20T10:10:24;6.10;99.90
25963;DHT22;13760;52.588;13.406;2023-12-20T10:13:07;6.10;99.90
25963;DHT22;13760;52.588;13.406;2023-12-20T10:15:34;6.10;99.90
25963;DHT22;13760;52.588;13.406;2023-12-20T10:18:00;6.10;99.90
25963;DHT22;13760;52.588;13.406;2023-12-20T10:20:27;6.10;99.90
25963;DHT22;13760;52.588;13.406;2023-12-20T10:22:55;6.10;99.90
25963;DHT22;13760;52.588;13.406;2023-12-20T10:25:21;6.10;99.90
25963;DHT22;13760;52.588;13.406;2023-12-20T10:27:47;6.10;99.90
25963;DHT22;13760;52.588;13.406;2023-12-20T10:30:13;6.10;99.90
25963;DHT22;13760;52.588;13.406;2023-12-20T10:32:42;6.10;99.90
25963;DHT22;13760;52.588;13.406;2023-12-20T10:35:10;6.10;99.90
25963;DHT22;13760;52.588;13.406;2023-12-20T10:37:37;6.10;99.90
25963;DHT22;13760;52.588;13.406;2023-12-20T10:40:04;6.10;99.90
25963;DHT22;13760;52.588;13.406;2023-12-20T10:42:31;6.10;99.90
25963;DHT22;13760;52.588;13.406;2023-12-20T10:44:59;6.10;99.90
25963;DHT22;13760;52.588;13.406;2023-12-20T10:47:25;6.20;99.90
25963;DHT22;13760;52.588;13.406;2023-12-20T10:49:52;6.20;99.90
25963;DHT22;13760;52.588;13.406;2023-12-20T10:52:19;6.30;99.90
25963;DHT22;13760;52.588;13.406;2023-12-20T10:54:48;6.30;99.90
25963;DHT22;13760;52.588;13.406;2023-12-20T10:57:13;6.30;99.90
25963;DHT22;13760;52.588;13.406;2023-12-20T10:59:39;6.30;99.90
25963;DHT22;13760;52.588;13.406;2023-12-20T11:02:06;6.30;99.90
25963;DHT22;13760;52.588;13.406;2023-12-20T11:04:47;6.30;99.90
25963;DHT22;13760;52.588;13.406;2023-12-20T11:07:25;6.30;99.90
25963;DHT22;13760;52.588;13.406;2023-12-20T11:10:02;6.30;99.90
25963;DHT22;13760;52.588;13.406;2023-12-20T11:15:17;6.40;99.90
25963;DHT22;13760;52.588;13.406;2023-12-20T11:17:45;6.40;99.90
25963;DHT22;13760;52.588;13.406;2023-12-20T11:20:12;6.30;99.90
25963;DHT22;13760;52.588;13.406;2023-12-20T11:22:40;6.30;99.90
25963;DHT22;13760;52.588;13.406;2023-12-20T11:25:17;6.40;99.90
25963;DHT22;13760;52.588;13.406;2023-12-20T11:27:43;6.30;99.90
25963;DHT22;13760;52.588;13.406;2023-12-20T11:30:09;6.30;99.90
25963;DHT22;13760;52.588;13.406;2023-12-20T11:32:36;6.20;99.90
25963;DHT22;13760;52.588;13.406;2023-12-20T11:37:35;6.20;99.90
25963;DHT22;13760;52.588;13.406;2023-12-20T11:42:33;6.20;99.90
25963;DHT22;13760;52.588;13.406;2023-12-20T11:45:01;6.20;99.90
25963;DHT22;13760;52.588;13.406;2023-12-20T11:47:29;6.20;99.90
25963;DHT22;13760;52.588;13.406;2023-12-20T11:49:55;6.20;99.90
25963;DHT22;13760;52.588;13.406;2023-12-20T11:52:21;6.20;99.90
25963;DHT22;13760;52.588;13.406;2023-12-20T11:54:47;6.30;99.90
25963;DHT22;13760;52.588;13.406;2023-12-20T11:57:13;6.20;99.90
25963;DHT22;13760;52.588;13.406;2023-12-20T11:59:39;6.30;99.90
25963;DHT22;13760;52.588;13.406;2023-12-20T12:02:05;6.30;99.90
25963;DHT22;13760;52.588;13.406;2023-12-20T12:04:30;6.40;99.90
25963;DHT22;13760;52.588;13.406;2023-12-20T12:06:56;6.50;99.90
25963;DHT22;13760;52.588;13.406;2023-12-20T12:09:21;6.60;99.90
25963;DHT22;13760;52.588;13.406;2023-12-20T12:11:47;6.60;99.90
25963;DHT22;13760;52.588;13.406;2023-12-20T12:14:13;6.60;99.90
25963;DHT22;13760;52.588;13.406;2023-12-20T12:16:38;6.60;99.90
25963;DHT22;13760;52.588;13.406;2023-12-20T12:19:04;6.50;99.90
25963;DHT22;13760;52.588;13.406;2023-12-20T12:21:30;6.50;99.90
25963;DHT22;13760;52.588;13.406;2023-12-20T12:24:06;6.50;99.90
25963;DHT22;13760;52.588;13.406;2023-12-20T12:26:32;6.50;99.90
25963;DHT22;13760;52.588;13.406;2023-12-20T12:28:57;6.50;99.90
25963;DHT22;13760;52.588;13.406;2023-12-20T12:31:23;6.40;99.90
25963;DHT22;13760;52.588;13.406;2023-12-20T12:33:50;6.30;99.90
25963;DHT22;13760;52.588;13.406;2023-12-20T12:36:19;6.30;99.90
25963;DHT22;13760;52.588;13.406;2023-12-20T12:38:45;6.20;99.90
25963;DHT22;13760;52.588;13.406;2023-12-20T12:41:13;6.20;99.90
25963;DHT22;13760;52.588;13.406;2023-12-20T12:43:38;6.10;99.90
25963;DHT22;13760;52.588;13.406;2023-12-20T12:46:04;6.10;99.90
25963;DHT22;13760;52.588;13.406;2023-12-20T12:48:29;6.00;99.90
25963;DHT22;13760;52.588;13.406;2023-12-20T12:50:55;6.00;99.90
25963;DHT22;13760;52.588;13.406;2023-12-20T12:53:24;6.00;99.90
25963;DHT22;13760;52.588;13.406;2023-12-20T12:55:50;6.00;99.90
25963;DHT22;13760;52.588;13.406;2023-12-20T12:58:16;6.00;99.90
25963;DHT22;13760;52.588;13.406;2023-12-20T13:00:42;6.00;99.90
25963;DHT22;13760;52.588;13.406;2023-12-20T13:03:07;5.90;99.90
25963;DHT22;13760;52.588;13.406;2023-12-20T13:05:33;5.90;99.90
25963;DHT22;13760;52.588;13.406;2023-12-20T13:07:59;5.90;99.90
25963;DHT22;13760;52.588;13.406;2023-12-20T13:10:24;5.90;99.90
25963;DHT22;13760;52.588;13.406;2023-12-20T13:12:50;5.90;99.90
25963;DHT22;13760;52.588;13.406;2023-12-20T13:15:16;6.00;99.90
25963;DHT22;13760;52.588;13.406;2023-12-20T13:17:41;6.00;99.90
25963;DHT22;13760;52.588;13.406;2023-12-20T13:20:07;6.00;99.90
25963;DHT22;13760;52.588;13.406;2023-12-20T13:22:33;5.90;99.90
25963;DHT22;13760;52.588;13.406;2023-12-20T13:24:58;6.00;99.90
25963;DHT22;13760;52.588;13.406;2023-12-20T13:27:24;5.90;99.90
25963;DHT22;13760;52.588;13.406;2023-12-20T13:29:49;5.90;99.90
25963;DHT22;13760;52.588;13.406;2023-12-20T13:32:15;5.90;99.90
25963;DHT22;13760;52.588;13.406;2023-12-20T13:34:41;5.80;99.90
25963;DHT22;13760;52.588;13.406;2023-12-20T13:37:06;5.80;99.90
25963;DHT22;13760;52.588;13.406;2023-12-20T13:39:32;5.80;99.90
25963;DHT22;13760;52.588;13.406;2023-12-20T13:41:58;5.80;99.90
25963;DHT22;13760;52.588;13.406;2023-12-20T13:44:23;5.70;99.90
25963;DHT22;13760;52.588;13.406;2023-12-20T13:46:49;5.70;99.90
25963;DHT22;13760;52.588;13.406;2023-12-20T13:49:15;5.70;99.90
25963;DHT22;13760;52.588;13.406;2023-12-20T13:51:41;5.70;99.90
25963;DHT22;13760;52.588;13.406;2023-12-20T13:54:06;5.60;99.90
25963;DHT22;13760;52.588;13.406;2023-12-20T13:56:32;5.60;99.90
25963;DHT22;13760;52.588;13.406;2023-12-20T13:58:58;5.50;99.90
25963;DHT22;13760;52.588;13.406;2023-12-20T14:01:25;5.40;99.90
25963;DHT22;13760;52.588;13.406;2023-12-20T14:03:52;5.40;99.90
25963;DHT22;13760;52.588;13.406;2023-12-20T14:06:17;5.40;99.90
25963;DHT22;13760;52.588;13.406;2023-12-20T14:08:43;5.40;99.90
25963;DHT22;13760;52.588;13.406;2023-12-20T14:11:09;5.40;99.90
25963;DHT22;13760;52.588;13.406;2023-12-20T14:13:34;5.40;99.90
25963;DHT22;13760;52.588;13.406;2023-12-20T14:16:00;5.40;99.90
25963;DHT22;13760;52.588;13.406;2023-12-20T14:18:27;5.40;99.90
25963;DHT22;13760;52.588;13.406;2023-12-20T14:20:53;5.30;99.90
25963;DHT22;13760;52.588;13.406;2023-12-20T14:23:19;5.30;99.90
25963;DHT22;13760;52.588;13.406;2023-12-20T14:25:44;5.20;99.90
25963;DHT22;13760;52.588;13.406;2023-12-20T14:28:10;5.20;99.90
25963;DHT22;13760;52.588;13.406;2023-12-20T14:30:39;5.30;99.90
25963;DHT22;13760;52.588;13.406;2023-12-20T14:33:04;5.30;99.90
25963;DHT22;13760;52.588;13.406;2023-12-20T14:35:30;5.30;99.90
25963;DHT22;13760;52.588;13.406;2023-12-20T14:37:55;5.30;99.90
25963;DHT22;13760;52.588;13.406;2023-12-20T14:40:21;5.30;99.90
25963;DHT22;13760;52.588;13.406;2023-12-20T14:42:47;5.30;99.90
25963;DHT22;13760;52.588;13.406;2023-12-20T14:45:12;5.30;99.90
25963;DHT22;13760;52.588;13.406;2023-12-20T14:47:41;5.20;99.90
25963;DHT22;13760;52.588;13.406;2023-12-20T14:50:07;5.20;99.90
25963;DHT22;13760;52.588;13.406;2023-12-20T14:52:33;5.20;99.90
25963;DHT22;13760;52.588;13.406;2023-12-20T14:55:00;5.20;99.90
25963;DHT22;13760;52.588;13.406;2023-12-20T14:57:26;5.20;99.90
25963;DHT22;13760;52.588;13.406;2023-12-20T14:59:52;5.20;99.90
25963;DHT22;13760;52.588;13.406;2023-12-20T15:02:17;5.20;99.90
25963;DHT22;13760;52.588;13.406;2023-12-20T15:04:43;5.20;99.90
25963;DHT22;13760;52.588;13.406;2023-12-20T15:07:09;5.20;99.90
25963;DHT22;13760;52.588;13.406;2023-12-20T15:09:34;5.20;99.90
25963;DHT22;13760;52.588;13.406;2023-12-20T15:12:00;5.20;99.90
25963;DHT22;13760;52.588;13.406;2023-12-20T15:14:26;5.20;99.90
25963;DHT22;13760;52.588;13.406;2023-12-20T15:16:53;5.20;99.90
25963;DHT22;13760;52.588;13.406;2023-12-20T15:19:20;5.20;99.90
25963;DHT22;13760;52.588;13.406;2023-12-20T15:21:46;5.20;99.90
25963;DHT22;13760;52.588;13.406;2023-12-20T15:24:12;5.20;99.90
25963;DHT22;13760;52.588;13.406;2023-12-20T15:26:42;5.20;99.90
25963;DHT22;13760;52.588;13.406;2023-12-20T15:29:09;5.30;99.90
25963;DHT22;13760;52.588;13.406;2023-12-20T15:31:36;5.20;99.90